createdAt,value
2022-11-24T00:01:27.997Z,8.40
2022-11-24T00:03:57.342Z,8.40
2022-11-24T00:06:24.391Z,8.40
2022-11-24T00:08:51.521Z,8.50
2022-11-24T00:11:21.097Z,8.40
2022-11-24T00:13:48.299Z,8.40
2022-11-24T00:16:16.683Z,8.40
2022-11-24T00:18:45.245Z,8.40
2022-11-24T00:21:13.189Z,8.40
2022-11-24T00:23:40.044Z,8.50
2022-11-24T00:26:10.705Z,8.50
2022-11-24T00:28:38.670Z,8.70
2022-11-24T00:31:17.327Z,8.70
2022-11-24T00:33:45.189Z,8.70
2022-11-24T00:36:11.978Z,8.80
2022-11-24T00:38:38.680Z,8.80
2022-11-24T00:41:05.710Z,8.60
2022-11-24T00:43:32.612Z,8.60
2022-11-24T00:45:59.438Z,8.60
2022-11-24T00:48:26.219Z,8.60
2022-11-24T00:51:04.647Z,8.70
2022-11-24T00:53:31.592Z,8.70
2022-11-24T00:55:58.528Z,8.70
2022-11-24T00:58:25.394Z,8.60
2022-11-24T01:00:52.779Z,8.70
2022-11-24T01:03:20.588Z,8.60
2022-11-24T01:05:47.338Z,8.60
2022-11-24T01:08:14.094Z,8.60
2022-11-24T01:10:40.835Z,8.50
2022-11-24T01:13:07.562Z,8.60
2022-11-24T01:15:36.183Z,8.70
2022-11-24T01:18:03.499Z,8.60
2022-11-24T01:20:30.790Z,8.60
2022-11-24T01:22:57.608Z,8.50
2022-11-24T01:25:24.326Z,8.60
2022-11-24T01:27:51.318Z,8.60
2022-11-24T01:30:18.216Z,8.70
2022-11-24T01:32:44.972Z,8.60
2022-11-24T01:35:11.647Z,8.60
2022-11-24T01:37:38.318Z,8.60
2022-11-24T01:40:05.737Z,8.70
2022-11-24T01:42:50.804Z,8.80
2022-11-24T01:45:23.546Z,8.80
2022-11-24T01:47:50.269Z,8.70
2022-11-24T01:50:17.885Z,8.70
2022-11-24T01:52:52.275Z,8.80
2022-11-24T01:55:22.619Z,8.70
2022-11-24T01:57:58.852Z,8.80
2022-11-24T02:00:25.960Z,8.60
2022-11-24T02:02:53.448Z,8.60
2022-11-24T02:05:33.935Z,8.60
2022-11-24T02:08:01.956Z,8.50
2022-11-24T02:10:29.725Z,8.50
2022-11-24T02:12:59.599Z,8.50
2022-11-24T02:15:27.273Z,8.70
2022-11-24T02:17:53.995Z,8.60
2022-11-24T02:20:20.739Z,8.60
2022-11-24T02:23:03.661Z,8.60
2022-11-24T02:26:09.701Z,8.60
2022-11-24T02:28:36.901Z,8.60
2022-11-24T02:31:05.398Z,8.60
2022-11-24T02:33:34.480Z,8.60
2022-11-24T02:36:01.212Z,8.40
2022-11-24T02:38:31.165Z,8.30
2022-11-24T02:41:01.692Z,8.50
2022-11-24T02:43:32.410Z,8.60
2022-11-24T02:45:59.241Z,8.70
2022-11-24T02:48:25.974Z,8.60
2022-11-24T02:50:52.620Z,8.70
2022-11-24T02:53:19.306Z,8.70
2022-11-24T02:55:45.943Z,8.70
2022-11-24T02:58:14.806Z,8.60
2022-11-24T03:00:41.549Z,8.60
2022-11-24T03:03:08.256Z,8.50
2022-11-24T03:05:34.937Z,8.60
2022-11-24T03:08:01.593Z,8.40
2022-11-24T03:10:29.070Z,8.50
2022-11-24T03:12:56.210Z,8.50
2022-11-24T03:15:23.876Z,8.50
2022-11-24T03:17:50.903Z,8.60
2022-11-24T03:20:17.658Z,8.60
2022-11-24T03:22:44.350Z,8.60
2022-11-24T03:25:11.272Z,8.60
2022-11-24T03:27:37.926Z,8.50
2022-11-24T03:30:05.285Z,8.50
2022-11-24T03:32:31.993Z,8.40
2022-11-24T03:34:58.688Z,8.50
2022-11-24T03:37:25.320Z,8.50
2022-11-24T03:39:51.981Z,8.30
2022-11-24T03:42:18.610Z,8.50
2022-11-24T03:44:45.303Z,8.40
2022-11-24T03:47:12.352Z,8.40
2022-11-24T03:49:40.154Z,8.30
2022-11-24T03:52:08.407Z,8.40
2022-11-24T03:54:35.468Z,8.50
2022-11-24T03:57:02.330Z,8.60
2022-11-24T03:59:28.996Z,8.60
2022-11-24T04:01:56.164Z,8.50
2022-11-24T04:04:22.911Z,8.50
2022-11-24T04:06:49.537Z,8.40
2022-11-24T04:09:16.382Z,8.50
2022-11-24T04:12:01.457Z,8.60
2022-11-24T04:14:28.144Z,8.50
2022-11-24T04:16:54.782Z,8.50
2022-11-24T04:19:21.438Z,8.60
2022-11-24T04:21:48.101Z,8.80
2022-11-24T04:24:15.086Z,8.80
2022-11-24T04:26:41.764Z,8.60
2022-11-24T04:29:09.741Z,8.50
2022-11-24T04:31:36.478Z,8.50
2022-11-24T04:34:03.174Z,8.70
2022-11-24T04:36:29.955Z,8.60
2022-11-24T04:39:19.911Z,8.70
2022-11-24T04:41:43.263Z,8.70
2022-11-24T04:44:09.903Z,8.60
2022-11-24T04:46:36.732Z,8.60
2022-11-24T04:49:03.523Z,8.60
2022-11-24T04:51:30.229Z,8.50
2022-11-24T04:53:57.028Z,8.50
2022-11-24T04:56:23.766Z,8.60
2022-11-24T04:58:50.466Z,8.60
2022-11-24T05:01:17.274Z,8.30
2022-11-24T05:03:43.978Z,8.50
2022-11-24T05:06:10.659Z,8.50
2022-11-24T05:08:37.312Z,8.40
2022-11-24T05:11:07.609Z,8.50
2022-11-24T05:13:34.341Z,8.30
2022-11-24T05:16:01.694Z,8.30
2022-11-24T05:18:28.867Z,8.20
2022-11-24T05:20:55.832Z,8.10
2022-11-24T05:23:22.505Z,8.20
2022-11-24T05:25:49.716Z,8.20
2022-11-24T05:28:16.687Z,8.30
2022-11-24T05:30:43.609Z,8.30
2022-11-24T05:33:24.409Z,8.40
2022-11-24T05:35:51.392Z,8.50
2022-11-24T05:38:18.656Z,8.50
2022-11-24T05:40:45.491Z,8.50
2022-11-24T05:43:13.234Z,8.50
2022-11-24T05:45:40.027Z,8.60
2022-11-24T05:48:12.529Z,8.60
2022-11-24T05:50:39.339Z,8.50
2022-11-24T05:53:09.329Z,8.50
2022-11-24T05:55:36.607Z,8.40
2022-11-24T05:58:05.850Z,8.40
2022-11-24T06:00:33.777Z,8.40
2022-11-24T06:03:01.429Z,8.40
2022-11-24T06:05:29.464Z,8.30
2022-11-24T06:07:56.473Z,8.30
2022-11-24T06:10:23.935Z,8.10
2022-11-24T06:12:50.748Z,8.20
2022-11-24T06:15:17.444Z,8.20
2022-11-24T06:17:45.179Z,8.30
2022-11-24T06:20:12.014Z,8.10
2022-11-24T06:22:38.719Z,8.10
2022-11-24T06:25:05.787Z,8.10
2022-11-24T06:27:32.413Z,8.10
2022-11-24T06:29:59.152Z,8.20
2022-11-24T06:32:25.993Z,8.20
2022-11-24T06:34:52.665Z,8.10
2022-11-24T06:37:19.301Z,8.10
2022-11-24T06:39:45.949Z,8.10
2022-11-24T06:42:12.623Z,8.10
2022-11-24T06:44:39.557Z,8.20
2022-11-24T06:47:06.201Z,8.30
2022-11-24T06:49:32.853Z,8.30
2022-11-24T06:51:59.484Z,8.30
2022-11-24T06:54:26.142Z,8.30
2022-11-24T06:56:57.358Z,8.20
2022-11-24T06:59:24.745Z,8.30
2022-11-24T07:01:51.427Z,8.30
2022-11-24T07:04:18.307Z,8.30
2022-11-24T07:06:45.361Z,8.30
2022-11-24T07:09:13.649Z,8.30
2022-11-24T07:11:54.786Z,8.20
2022-11-24T07:14:21.533Z,8.30
2022-11-24T07:16:48.245Z,8.20
2022-11-24T07:19:17.935Z,8.20
2022-11-24T07:21:46.885Z,8.20
2022-11-24T07:24:13.615Z,8.20
2022-11-24T07:26:40.453Z,8.20
2022-11-24T07:29:07.399Z,8.20
2022-11-24T07:31:34.215Z,8.30
2022-11-24T07:34:01.059Z,8.20
2022-11-24T07:36:27.776Z,8.20
2022-11-24T07:38:54.445Z,8.30
2022-11-24T07:41:21.133Z,8.20
2022-11-24T07:43:48.815Z,8.30
2022-11-24T07:46:17.639Z,8.30
2022-11-24T07:48:44.738Z,8.20
2022-11-24T07:51:11.469Z,8.20
2022-11-24T07:53:38.511Z,8.30
2022-11-24T07:56:06.738Z,8.30
2022-11-24T07:58:35.879Z,8.40
2022-11-24T08:01:16.930Z,8.30
2022-11-24T08:03:45.062Z,8.50
2022-11-24T08:06:32.575Z,8.60
2022-11-24T08:08:59.801Z,8.60
2022-11-24T08:11:27.125Z,8.70
2022-11-24T08:13:53.849Z,8.90
2022-11-24T08:16:20.821Z,8.90
2022-11-24T08:18:53.164Z,8.90
2022-11-24T08:21:20.578Z,9.00
2022-11-24T08:23:47.397Z,9.00
2022-11-24T08:26:18.753Z,9.00
2022-11-24T08:28:46.564Z,9.10
2022-11-24T08:31:20.555Z,9.20
2022-11-24T08:33:47.601Z,9.30
2022-11-24T08:36:17.213Z,9.30
2022-11-24T08:38:44.716Z,9.20
2022-11-24T08:41:14.473Z,9.20
2022-11-24T08:43:41.345Z,9.20
2022-11-24T08:46:10.923Z,9.10
2022-11-24T08:48:37.830Z,9.20
2022-11-24T08:51:10.166Z,9.20
2022-11-24T08:53:37.309Z,9.10
2022-11-24T08:56:04.765Z,9.10
2022-11-24T08:58:32.340Z,9.10
2022-11-24T09:01:14.918Z,9.10
2022-11-24T09:03:49.746Z,9.00
2022-11-24T09:06:26.042Z,8.90
2022-11-24T09:08:54.725Z,9.10
2022-11-24T09:11:22.207Z,9.10
2022-11-24T09:13:49.363Z,9.20
2022-11-24T09:16:19.330Z,9.40
2022-11-24T09:18:48.082Z,9.50
2022-11-24T09:21:20.078Z,9.20
2022-11-24T09:23:51.591Z,9.30
2022-11-24T09:26:21.499Z,9.40
2022-11-24T09:28:50.133Z,9.50
2022-11-24T09:31:17.889Z,9.60
2022-11-24T09:33:45.769Z,9.50
2022-11-24T09:36:13.391Z,9.50
2022-11-24T09:38:40.944Z,9.50
2022-11-24T09:41:19.623Z,9.70
2022-11-24T09:44:15.197Z,9.80
2022-11-24T09:47:06.255Z,9.90
2022-11-24T09:49:35.898Z,9.90
2022-11-24T09:52:09.658Z,9.90
2022-11-24T09:54:41.241Z,10.10
2022-11-24T09:57:11.962Z,10.30
2022-11-24T09:59:41.908Z,10.20
2022-11-24T10:02:13.223Z,10.20
2022-11-24T10:04:43.673Z,10.20
2022-11-24T10:07:22.056Z,10.10
2022-11-24T10:09:56.665Z,10.20
2022-11-24T10:12:29.321Z,10.20
2022-11-24T10:15:25.395Z,10.30
2022-11-24T10:18:19.948Z,10.40
2022-11-24T10:21:09.403Z,10.80
2022-11-24T10:24:12.849Z,11.20
2022-11-24T10:26:42.996Z,11.30
2022-11-24T10:29:13.670Z,10.80
2022-11-24T10:31:44.556Z,10.80
2022-11-24T10:34:17.309Z,10.70
2022-11-24T10:37:01.992Z,10.90
2022-11-24T10:39:30.984Z,10.90
2022-11-24T10:42:05.648Z,10.80
2022-11-24T10:44:32.377Z,10.80
2022-11-24T10:46:59.419Z,10.70
2022-11-24T10:49:29.897Z,10.90
2022-11-24T10:52:12.478Z,11.10
2022-11-24T10:54:55.960Z,11.20
2022-11-24T10:57:48.918Z,11.40
2022-11-24T11:00:18.596Z,11.30
2022-11-24T11:02:49.184Z,11.10
2022-11-24T11:05:44.546Z,11.10
2022-11-24T11:08:14.322Z,10.80
2022-11-24T11:10:43.028Z,10.80
2022-11-24T11:13:30.325Z,10.90
2022-11-24T11:15:58.654Z,10.90
2022-11-24T11:18:33.272Z,11.00
2022-11-24T11:21:02.368Z,10.90
2022-11-24T11:23:30.717Z,10.90
2022-11-24T11:26:19.990Z,10.90
2022-11-24T11:35:12.964Z,11.10
2022-11-24T11:37:40.296Z,11.30
2022-11-24T11:40:21.643Z,11.40
2022-11-24T11:43:07.773Z,11.50
2022-11-24T11:45:36.860Z,11.60
2022-11-24T11:48:03.562Z,11.50
2022-11-24T11:51:06.754Z,11.40
2022-11-24T11:53:45.188Z,11.30
2022-11-24T11:56:28.178Z,11.30
2022-11-24T11:59:14.248Z,11.60
2022-11-24T12:02:02.232Z,11.40
2022-11-24T12:04:47.136Z,11.30
2022-11-24T12:07:34.081Z,11.40
2022-11-24T12:10:12.135Z,11.50
2022-11-24T12:12:51.717Z,11.70
2022-11-24T12:15:30.453Z,11.70
2022-11-24T12:21:53.128Z,11.30
2022-11-24T12:24:46.786Z,11.40
2022-11-24T12:27:40.018Z,11.40
2022-11-24T12:30:12.374Z,11.40
2022-11-24T12:32:50.943Z,11.10
2022-11-24T12:35:28.775Z,11.20
2022-11-24T12:38:23.302Z,11.30
2022-11-24T12:41:40.538Z,11.40
2022-11-24T12:44:30.652Z,11.30
2022-11-24T12:47:13.844Z,11.00
2022-11-24T12:49:50.465Z,11.10
2022-11-24T12:52:25.951Z,11.20
2022-11-24T12:54:53.505Z,10.80
2022-11-24T12:57:32.263Z,10.80
2022-11-24T13:00:15.814Z,10.80
2022-11-24T13:03:19.312Z,10.80
2022-11-24T13:06:15.810Z,11.00
2022-11-24T13:08:42.916Z,11.20
2022-11-24T13:11:21.714Z,11.20
2022-11-24T13:14:04.694Z,11.10
2022-11-24T13:16:37.107Z,11.00
2022-11-24T13:19:14.695Z,10.70
2022-11-24T13:21:45.430Z,10.70
2022-11-24T13:24:19.105Z,10.50
2022-11-24T13:26:49.581Z,10.60
2022-11-24T13:29:28.735Z,10.70
2022-11-24T13:32:17.543Z,10.60
2022-11-24T13:34:45.542Z,10.60
2022-11-24T13:37:35.121Z,10.70
2022-11-24T13:40:22.899Z,10.40
2022-11-24T13:42:56.119Z,10.60
2022-11-24T13:45:45.056Z,10.40
2022-11-24T13:48:21.373Z,10.40
2022-11-24T13:50:51.645Z,10.50
2022-11-24T13:53:34.606Z,10.50
2022-11-24T13:56:12.036Z,10.60
2022-11-24T13:58:56.058Z,10.60
2022-11-24T14:01:25.905Z,10.60
2022-11-24T14:04:33.831Z,10.70
2022-11-24T14:07:08.752Z,10.80
2022-11-24T14:09:48.039Z,11.00
2022-11-24T14:12:19.242Z,10.90
2022-11-24T14:14:48.347Z,10.70
2022-11-24T14:17:22.192Z,10.60
2022-11-24T14:19:57.469Z,10.60
2022-11-24T14:22:40.970Z,10.60
2022-11-24T14:25:30.721Z,10.60
2022-11-24T14:27:59.124Z,10.60
2022-11-24T14:30:26.195Z,10.50
2022-11-24T14:33:01.111Z,10.50
2022-11-24T14:35:29.276Z,10.50
2022-11-24T14:37:56.198Z,10.30
2022-11-24T14:40:52.226Z,10.20
2022-11-24T14:43:30.908Z,10.20
2022-11-24T14:46:10.232Z,10.30
2022-11-24T14:48:39.116Z,10.30
2022-11-24T14:51:27.819Z,10.30
2022-11-24T14:53:58.518Z,10.40
2022-11-24T14:56:32.529Z,10.40
2022-11-24T14:58:59.362Z,10.50
2022-11-24T15:01:29.379Z,10.50
2022-11-24T15:04:54.310Z,10.30
2022-11-24T15:07:26.173Z,10.10
2022-11-24T15:09:59.233Z,9.80
2022-11-24T15:12:39.498Z,9.70
2022-11-24T15:15:15.972Z,9.80
2022-11-24T15:17:56.085Z,9.70
2022-11-24T15:20:35.928Z,9.60
2022-11-24T15:23:25.526Z,9.60
2022-11-24T15:25:56.416Z,9.50
2022-11-24T15:28:25.648Z,9.50
2022-11-24T15:30:59.347Z,9.40
2022-11-24T15:33:26.792Z,9.40
2022-11-24T15:35:53.998Z,9.30
2022-11-24T15:38:21.499Z,9.20
2022-11-24T15:40:50.197Z,9.20
2022-11-24T15:43:29.869Z,9.20
2022-11-24T15:45:57.474Z,9.10
2022-11-24T15:48:24.359Z,9.00
2022-11-24T15:50:52.016Z,9.00
2022-11-24T15:53:20.081Z,8.90
2022-11-24T15:55:47.692Z,8.80
2022-11-24T15:58:15.411Z,8.80
2022-11-24T16:00:43.243Z,8.80
2022-11-24T16:03:38.777Z,8.70
2022-11-24T16:05:57.479Z,8.70
2022-11-24T16:08:24.160Z,8.60
2022-11-24T16:10:51.226Z,8.50
2022-11-24T16:13:17.934Z,8.40
2022-11-24T16:15:45.679Z,8.40
2022-11-24T16:18:15.548Z,8.30
2022-11-24T16:20:42.267Z,8.10
2022-11-24T16:23:08.918Z,8.10
2022-11-24T16:25:36.610Z,8.00
2022-11-24T16:28:03.343Z,7.90
2022-11-24T16:30:30.007Z,7.80
2022-11-24T16:32:56.699Z,7.70
2022-11-24T16:35:23.345Z,7.60
2022-11-24T16:37:50.035Z,7.50
2022-11-24T16:40:18.105Z,7.40
2022-11-24T16:42:44.795Z,7.40
2022-11-24T16:45:12.919Z,7.30
2022-11-24T16:47:41.533Z,7.30
2022-11-24T16:50:10.532Z,7.30
2022-11-24T16:52:38.127Z,7.20
2022-11-24T16:55:09.575Z,7.10
2022-11-24T16:57:36.785Z,7.00
2022-11-24T17:00:05.127Z,6.90
2022-11-24T17:02:32.735Z,6.80
2022-11-24T17:04:59.439Z,6.80
2022-11-24T17:07:26.333Z,6.70
2022-11-24T17:09:53.044Z,6.70
2022-11-24T17:12:19.758Z,6.70
2022-11-24T17:15:03.063Z,6.60
2022-11-24T17:17:33.116Z,6.60
2022-11-24T17:19:59.874Z,6.50
2022-11-24T17:22:26.549Z,6.50
2022-11-24T17:24:53.239Z,6.50
2022-11-24T17:27:19.865Z,6.40
2022-11-24T17:29:46.567Z,6.30
2022-11-24T17:32:13.299Z,6.30
2022-11-24T17:34:39.984Z,6.20
2022-11-24T17:37:06.829Z,6.20
2022-11-24T17:39:33.521Z,6.10
2022-11-24T17:42:00.150Z,6.10
2022-11-24T17:44:26.976Z,6.00
2022-11-24T17:46:53.646Z,6.00
2022-11-24T17:49:21.107Z,5.90
2022-11-24T17:51:50.366Z,5.90
2022-11-24T17:54:45.412Z,5.90
2022-11-24T17:57:04.722Z,5.80
2022-11-24T17:59:31.485Z,5.60
2022-11-24T18:01:58.198Z,5.60
2022-11-24T18:04:24.958Z,5.60
2022-11-24T18:06:51.583Z,5.50
2022-11-24T18:09:18.233Z,5.50
2022-11-24T18:11:44.975Z,5.40
2022-11-24T18:14:11.665Z,5.30
2022-11-24T18:16:38.316Z,5.30
2022-11-24T18:19:10.718Z,5.30
2022-11-24T18:21:42.141Z,5.20
2022-11-24T18:24:10.041Z,5.20
2022-11-24T18:26:37.703Z,5.10
2022-11-24T18:29:04.536Z,5.10
2022-11-24T18:31:32.241Z,5.00
2022-11-24T18:33:59.710Z,5.00
2022-11-24T18:36:30.247Z,5.10
2022-11-24T18:39:00.251Z,5.10
2022-11-24T18:41:27.070Z,5.00
2022-11-24T18:43:53.836Z,5.00
2022-11-24T18:46:20.516Z,5.00
2022-11-24T18:48:47.340Z,5.10
2022-11-24T18:51:14.638Z,5.10
2022-11-24T18:53:42.568Z,5.10
2022-11-24T18:56:13.513Z,5.10
2022-11-24T18:58:40.180Z,5.10
2022-11-24T19:01:12.762Z,5.00
2022-11-24T19:03:47.814Z,4.90
2022-11-24T19:06:33.770Z,4.90
2022-11-24T19:09:03.719Z,4.90
2022-11-24T19:11:33.811Z,4.90
2022-11-24T19:14:02.032Z,4.90
2022-11-24T19:16:29.012Z,4.90
2022-11-24T19:18:59.757Z,5.00
2022-11-24T19:21:27.598Z,4.90
2022-11-24T19:23:55.199Z,4.80
2022-11-24T19:26:24.177Z,4.80
2022-11-24T19:28:50.856Z,4.80
2022-11-24T19:31:19.384Z,4.80
2022-11-24T19:33:46.230Z,4.80
2022-11-24T19:36:18.403Z,4.80
2022-11-24T19:38:53.405Z,4.80
2022-11-24T19:41:22.216Z,4.70
2022-11-24T19:43:49.497Z,4.70
2022-11-24T19:46:17.935Z,4.60
2022-11-24T19:48:47.535Z,4.60
2022-11-24T19:51:19.682Z,4.60
2022-11-24T19:53:46.846Z,4.60
2022-11-24T19:56:19.985Z,4.50
2022-11-24T19:58:47.613Z,4.50
2022-11-24T20:01:16.823Z,4.40
2022-11-24T20:03:45.117Z,4.40
2022-11-24T20:06:13.916Z,4.30
2022-11-24T20:08:41.953Z,4.30
2022-11-24T20:11:17.387Z,4.30
2022-11-24T20:13:46.236Z,4.30
2022-11-24T20:16:18.173Z,4.20
2022-11-24T20:18:47.000Z,4.20
2022-11-24T20:21:19.134Z,4.10
2022-11-24T20:23:52.033Z,4.10
2022-11-24T20:26:22.842Z,4.00
2022-11-24T20:28:51.306Z,4.00
2022-11-24T20:31:21.672Z,4.00
2022-11-24T20:33:48.557Z,4.00
2022-11-24T20:36:18.407Z,4.00
2022-11-24T20:38:46.635Z,4.10
2022-11-24T20:41:15.856Z,4.10
2022-11-24T20:43:44.014Z,4.10
2022-11-24T20:46:15.630Z,4.00
2022-11-24T20:48:42.484Z,4.00
2022-11-24T20:51:12.505Z,4.00
2022-11-24T20:53:39.385Z,4.00
2022-11-24T20:56:20.853Z,4.00
2022-11-24T20:58:48.186Z,4.00
2022-11-24T21:01:18.689Z,4.00
2022-11-24T21:03:47.326Z,3.90
2022-11-24T21:06:14.845Z,3.90
2022-11-24T21:08:42.400Z,3.90
2022-11-24T21:11:11.845Z,3.90
2022-11-24T21:13:40.980Z,3.90
2022-11-24T21:16:21.956Z,3.80
2022-11-24T21:18:53.176Z,3.70
2022-11-24T21:21:21.603Z,3.70
2022-11-24T21:23:48.945Z,3.80
2022-11-24T21:26:17.542Z,3.80
2022-11-24T21:28:46.077Z,3.70
2022-11-24T21:31:18.330Z,3.70
2022-11-24T21:33:50.733Z,3.70
2022-11-24T21:36:20.244Z,3.60
2022-11-24T21:38:57.898Z,3.50
2022-11-24T21:41:26.646Z,3.50
2022-11-24T21:43:55.865Z,3.40
2022-11-24T21:46:23.118Z,3.50
2022-11-24T21:48:50.160Z,3.40
2022-11-24T21:51:18.739Z,3.40
2022-11-24T21:53:45.980Z,3.40
2022-11-24T21:56:17.630Z,3.40
2022-11-24T21:58:57.229Z,3.40
2022-11-24T22:01:27.250Z,3.40
2022-11-24T22:03:54.574Z,3.40
2022-11-24T22:06:21.619Z,3.40
2022-11-24T22:08:48.886Z,3.40
2022-11-24T22:11:18.411Z,3.30
2022-11-24T22:13:45.569Z,3.40
2022-11-24T22:16:15.443Z,3.40
2022-11-24T22:18:44.408Z,3.40
2022-11-24T22:21:14.009Z,3.40
2022-11-24T22:23:40.979Z,3.50
2022-11-24T22:26:15.065Z,3.60
2022-11-24T22:28:42.614Z,3.60
2022-11-24T22:31:12.687Z,3.70
2022-11-24T22:33:39.871Z,3.70
2022-11-24T22:36:07.009Z,3.70
2022-11-24T22:38:34.208Z,3.60
2022-11-24T22:41:05.934Z,3.70
2022-11-24T22:43:34.761Z,3.60
2022-11-24T22:46:16.695Z,3.70
2022-11-24T22:48:45.035Z,3.60
2022-11-24T22:51:16.931Z,3.50
2022-11-24T22:53:52.100Z,3.50
2022-11-24T22:56:19.720Z,3.50
2022-11-24T22:58:47.100Z,3.50
2022-11-24T23:01:22.625Z,3.50
2022-11-24T23:03:50.080Z,3.40
2022-11-24T23:06:20.139Z,3.40
2022-11-24T23:08:47.276Z,3.40
2022-11-24T23:11:17.458Z,3.40
2022-11-24T23:13:44.575Z,3.50
2022-11-24T23:16:17.257Z,3.50
2022-11-24T23:18:48.808Z,3.40
2022-11-24T23:21:29.900Z,3.40
2022-11-24T23:23:58.895Z,3.40
2022-11-24T23:26:29.012Z,3.40
2022-11-24T23:28:55.674Z,3.50
2022-11-24T23:31:28.499Z,3.50
2022-11-24T23:33:57.730Z,3.50
2022-11-24T23:36:24.763Z,3.40
2022-11-24T23:38:51.723Z,3.50
2022-11-24T23:41:21.313Z,3.50
2022-11-24T23:43:48.079Z,3.60
2022-11-24T23:46:25.782Z,3.60
2022-11-24T23:48:53.622Z,3.60
2022-11-24T23:51:23.172Z,3.60
2022-11-24T23:53:50.830Z,3.60
2022-11-24T23:56:19.931Z,3.60
2022-11-24T23:58:46.879Z,3.50
